sensor_id;sensor_type;location;lat;lon;timestamp;pressure;altitude;pressure_sealevel;temperature;humidity
13348;BME280;6743;49.934;9.138;2023-09-18T00:00:16;99730.53;;;21.61;100.00
13348;BME280;6743;49.934;9.138;2023-09-18T00:02:43;99734.56;;;21.59;100.00
13348;BME280;6743;49.934;9.138;2023-09-18T00:05:11;99729.97;;;21.59;100.00
13348;BME280;6743;49.934;9.138;2023-09-18T00:07:45;99717.47;;;21.53;100.00
13348;BME280;6743;49.934;9.138;2023-09-18T00:10:11;99731.03;;;21.58;100.00
13348;BME280;6743;49.934;9.138;2023-09-18T00:12:37;99719.69;;;21.56;100.00
13348;BME280;6743;49.934;9.138;2023-09-18T00:15:05;99719.69;;;21.56;100.00
13348;BME280;6743;49.934;9.138;2023-09-18T00:17:31;99726.44;;;21.59;100.00
13348;BME280;6743;49.934;9.138;2023-09-18T00:19:57;99727.78;;;21.56;100.00
13348;BME280;6743;49.934;9.138;2023-09-18T00:22:24;99731.31;;;21.57;100.00
13348;BME280;6743;49.934;9.138;2023-09-18T00:24:58;99725.34;;;21.55;100.00
13348;BME280;6743;49.934;9.138;2023-09-18T00:27:24;99716.41;;;21.54;100.00
13348;BME280;6743;49.934;9.138;2023-09-18T00:29:50;99718.87;;;21.56;100.00
13348;BME280;6743;49.934;9.138;2023-09-18T00:32:16;99706.63;;;21.48;100.00
13348;BME280;6743;49.934;9.138;2023-09-18T00:34:42;99689.22;;;21.39;100.00
13348;BME280;6743;49.934;9.138;2023-09-18T00:37:08;99711.50;;;21.51;100.00
13348;BME280;6743;49.934;9.138;2023-09-18T00:39:50;99717.41;;;21.48;100.00
13348;BME280;6743;49.934;9.138;2023-09-18T00:42:17;99696.81;;;21.42;100.00
13348;BME280;6743;49.934;9.138;2023-09-18T00:44:43;99694.13;;;21.42;100.00
13348;BME280;6743;49.934;9.138;2023-09-18T00:47:10;99696.50;;;21.39;100.00
13348;BME280;6743;49.934;9.138;2023-09-18T00:49:38;99690.44;;;21.32;100.00
13348;BME280;6743;49.934;9.138;2023-09-18T00:52:06;99692.84;;;21.28;100.00
13348;BME280;6743;49.934;9.138;2023-09-18T00:54:34;99690.06;;;21.23;100.00
13348;BME280;6743;49.934;9.138;2023-09-18T00:57:03;99690.56;;;21.20;100.00
13348;BME280;6743;49.934;9.138;2023-09-18T00:59:33;99685.06;;;21.15;100.00
13348;BME280;6743;49.934;9.138;2023-09-18T01:01:59;99688.00;;;21.13;100.00
13348;BME280;6743;49.934;9.138;2023-09-18T01:04:33;99685.25;;;21.08;100.00
13348;BME280;6743;49.934;9.138;2023-09-18T01:06:59;99677.88;;;21.04;100.00
13348;BME280;6743;49.934;9.138;2023-09-18T01:09:29;99672.72;;;21.02;100.00
13348;BME280;6743;49.934;9.138;2023-09-18T01:12:03;99675.69;;;21.01;100.00
13348;BME280;6743;49.934;9.138;2023-09-18T01:14:37;99677.22;;;20.97;100.00
13348;BME280;6743;49.934;9.138;2023-09-18T01:17:05;99667.44;;;20.91;100.00
13348;BME280;6743;49.934;9.138;2023-09-18T01:19:40;99659.34;;;20.91;100.00
13348;BME280;6743;49.934;9.138;2023-09-18T01:22:07;99645.56;;;20.87;100.00
13348;BME280;6743;49.934;9.138;2023-09-18T01:25:09;99632.91;;;20.88;100.00
13348;BME280;6743;49.934;9.138;2023-09-18T01:27:56;99634.66;;;20.82;100.00
13348;BME280;6743;49.934;9.138;2023-09-18T01:30:22;99631.66;;;20.78;100.00
13348;BME280;6743;49.934;9.138;2023-09-18T01:32:50;99612.56;;;20.63;100.00
13348;BME280;6743;49.934;9.138;2023-09-18T01:35:29;99636.72;;;20.75;100.00
13348;BME280;6743;49.934;9.138;2023-09-18T01:37:56;99644.25;;;20.73;100.00
13348;BME280;6743;49.934;9.138;2023-09-18T01:40:28;99627.97;;;20.68;100.00
13348;BME280;6743;49.934;9.138;2023-09-18T01:43:09;99630.13;;;20.66;100.00
13348;BME280;6743;49.934;9.138;2023-09-18T01:45:35;99624.97;;;20.64;100.00
13348;BME280;6743;49.934;9.138;2023-09-18T01:48:04;99622.50;;;20.63;100.00
13348;BME280;6743;49.934;9.138;2023-09-18T01:50:31;99632.47;;;20.62;100.00
13348;BME280;6743;49.934;9.138;2023-09-18T01:52:58;99590.84;;;20.36;100.00
13348;BME280;6743;49.934;9.138;2023-09-18T01:55:25;99632.16;;;20.59;100.00
13348;BME280;6743;49.934;9.138;2023-09-18T01:57:59;99631.59;;;20.57;100.00
13348;BME280;6743;49.934;9.138;2023-09-18T02:00:25;99634.53;;;20.55;100.00
13348;BME280;6743;49.934;9.138;2023-09-18T02:02:51;99622.09;;;20.54;100.00
13348;BME280;6743;49.934;9.138;2023-09-18T02:05:17;99618.63;;;20.54;100.00
13348;BME280;6743;49.934;9.138;2023-09-18T02:07:43;99626.94;;;20.52;100.00
13348;BME280;6743;49.934;9.138;2023-09-18T02:10:09;99618.03;;;20.52;100.00
13348;BME280;6743;49.934;9.138;2023-09-18T02:12:38;99609.12;;;20.51;100.00
13348;BME280;6743;49.934;9.138;2023-09-18T02:15:06;99601.38;;;20.55;100.00
13348;BME280;6743;49.934;9.138;2023-09-18T02:17:35;99600.53;;;20.54;100.00
13348;BME280;6743;49.934;9.138;2023-09-18T02:20:16;99596.06;;;20.60;100.00
13348;BME280;6743;49.934;9.138;2023-09-18T02:22:44;99605.28;;;20.64;100.00
13348;BME280;6743;49.934;9.138;2023-09-18T02:25:12;99627.19;;;20.67;100.00
13348;BME280;6743;49.934;9.138;2023-09-18T02:27:39;99655.28;;;20.71;100.00
13348;BME280;6743;49.934;9.138;2023-09-18T02:30:06;99686.56;;;20.72;100.00
13348;BME280;6743;49.934;9.138;2023-09-18T02:32:33;99648.91;;;20.77;100.00
13348;BME280;6743;49.934;9.138;2023-09-18T02:35:00;99646.53;;;20.81;100.00
13348;BME280;6743;49.934;9.138;2023-09-18T02:37:26;99635.75;;;20.81;100.00
13348;BME280;6743;49.934;9.138;2023-09-18T02:39:54;99686.16;;;20.80;100.00
13348;BME280;6743;49.934;9.138;2023-09-18T02:48:48;99830.25;;;20.73;100.00
13348;BME280;6743;49.934;9.138;2023-09-18T02:51:29;99813.06;;;20.62;100.00
13348;BME280;6743;49.934;9.138;2023-09-18T03:00:28;99777.78;;;20.64;100.00
13348;BME280;6743;49.934;9.138;2023-09-18T03:02:55;99768.56;;;20.60;100.00
13348;BME280;6743;49.934;9.138;2023-09-18T03:05:22;99756.06;;;20.54;100.00
13348;BME280;6743;49.934;9.138;2023-09-18T03:08:23;99720.91;;;20.49;100.00
13348;BME280;6743;49.934;9.138;2023-09-18T03:10:49;99735.13;;;20.44;100.00
13348;BME280;6743;49.934;9.138;2023-09-18T03:13:22;99733.72;;;20.41;100.00
13348;BME280;6743;49.934;9.138;2023-09-18T03:15:52;99679.72;;;20.08;100.00
13348;BME280;6743;49.934;9.138;2023-09-18T03:18:26;99711.13;;;20.31;100.00
13348;BME280;6743;49.934;9.138;2023-09-18T03:21:01;99701.41;;;20.30;100.00
13348;BME280;6743;49.934;9.138;2023-09-18T03:24:05;99682.78;;;20.28;100.00
13348;BME280;6743;49.934;9.138;2023-09-18T03:26:32;99690.06;;;20.28;100.00
13348;BME280;6743;49.934;9.138;2023-09-18T03:28:58;99663.78;;;20.18;100.00
13348;BME280;6743;49.934;9.138;2023-09-18T03:31:24;99673.56;;;20.24;100.00
13348;BME280;6743;49.934;9.138;2023-09-18T03:33:50;99671.69;;;20.25;100.00
13348;BME280;6743;49.934;9.138;2023-09-18T03:36:19;99688.69;;;20.25;100.00
13348;BME280;6743;49.934;9.138;2023-09-18T03:38:46;99692.97;;;20.26;100.00
13348;BME280;6743;49.934;9.138;2023-09-18T03:41:14;99668.28;;;20.29;100.00
13348;BME280;6743;49.934;9.138;2023-09-18T03:43:56;99653.31;;;20.22;100.00
13348;BME280;6743;49.934;9.138;2023-09-18T03:46:23;99655.19;;;20.33;100.00
13348;BME280;6743;49.934;9.138;2023-09-18T03:49:04;99629.28;;;20.32;100.00
13348;BME280;6743;49.934;9.138;2023-09-18T03:51:35;99617.91;;;20.30;100.00
13348;BME280;6743;49.934;9.138;2023-09-18T03:54:05;99608.53;;;20.32;100.00
13348;BME280;6743;49.934;9.138;2023-09-18T03:56:31;99607.72;;;20.32;100.00
13348;BME280;6743;49.934;9.138;2023-09-18T03:59:01;99592.53;;;20.26;100.00
13348;BME280;6743;49.934;9.138;2023-09-18T04:01:28;99604.53;;;20.35;100.00
13348;BME280;6743;49.934;9.138;2023-09-18T04:03:54;99596.47;;;20.35;100.00
13348;BME280;6743;49.934;9.138;2023-09-18T04:06:21;99606.78;;;20.38;100.00
13348;BME280;6743;49.934;9.138;2023-09-18T04:08:50;99611.66;;;20.41;100.00
13348;BME280;6743;49.934;9.138;2023-09-18T04:11:18;99605.84;;;20.32;100.00
13348;BME280;6743;49.934;9.138;2023-09-18T04:13:51;99615.09;;;20.36;100.00
13348;BME280;6743;49.934;9.138;2023-09-18T04:16:17;99621.78;;;20.34;100.00
13348;BME280;6743;49.934;9.138;2023-09-18T04:18:43;99605.34;;;20.19;100.00
13348;BME280;6743;49.934;9.138;2023-09-18T04:21:11;99637.34;;;20.32;100.00
13348;BME280;6743;49.934;9.138;2023-09-18T04:23:37;99630.78;;;20.28;100.00
13348;BME280;6743;49.934;9.138;2023-09-18T04:26:18;99647.78;;;20.28;100.00
13348;BME280;6743;49.934;9.138;2023-09-18T04:29:00;99650.97;;;20.25;100.00
13348;BME280;6743;49.934;9.138;2023-09-18T04:31:26;99644.19;;;20.23;100.00
13348;BME280;6743;49.934;9.138;2023-09-18T04:34:14;99652.84;;;20.25;100.00
13348;BME280;6743;49.934;9.138;2023-09-18T04:36:40;99669.25;;;20.23;100.00
13348;BME280;6743;49.934;9.138;2023-09-18T04:39:07;99663.50;;;20.20;100.00
13348;BME280;6743;49.934;9.138;2023-09-18T04:41:36;99657.06;;;20.21;100.00
13348;BME280;6743;49.934;9.138;2023-09-18T04:44:17;99671.34;;;20.21;100.00
13348;BME280;6743;49.934;9.138;2023-09-18T04:46:43;99689.37;;;20.21;100.00
13348;BME280;6743;49.934;9.138;2023-09-18T04:49:24;99675.97;;;20.09;100.00
13348;BME280;6743;49.934;9.138;2023-09-18T04:52:05;99703.66;;;20.21;100.00
13348;BME280;6743;49.934;9.138;2023-09-18T04:54:31;99696.41;;;20.22;100.00
13348;BME280;6743;49.934;9.138;2023-09-18T04:56:58;99688.31;;;20.22;100.00
13348;BME280;6743;49.934;9.138;2023-09-18T04:59:39;99684.00;;;20.21;100.00
13348;BME280;6743;49.934;9.138;2023-09-18T05:02:05;99670.44;;;20.16;100.00
13348;BME280;6743;49.934;9.138;2023-09-18T05:04:31;99657.81;;;20.16;100.00
13348;BME280;6743;49.934;9.138;2023-09-18T05:06:57;99622.59;;;20.06;100.00
13348;BME280;6743;49.934;9.138;2023-09-18T05:09:23;99588.53;;;20.12;100.00
13348;BME280;6743;49.934;9.138;2023-09-18T05:11:49;99579.03;;;20.09;100.00
13348;BME280;6743;49.934;9.138;2023-09-18T05:14:16;99584.66;;;20.08;100.00
13348;BME280;6743;49.934;9.138;2023-09-18T05:17:03;99591.91;;;20.07;100.00
13348;BME280;6743;49.934;9.138;2023-09-18T05:19:34;99587.34;;;20.08;100.00
13348;BME280;6743;49.934;9.138;2023-09-18T05:22:01;99621.31;;;20.09;100.00
13348;BME280;6743;49.934;9.138;2023-09-18T05:27:20;99646.12;;;20.11;100.00
13348;BME280;6743;49.934;9.138;2023-09-18T05:30:08;99632.91;;;20.09;100.00
13348;BME280;6743;49.934;9.138;2023-09-18T05:32:35;99635.34;;;20.11;100.00
13348;BME280;6743;49.934;9.138;2023-09-18T05:43:26;99605.50;;;20.12;100.00
13348;BME280;6743;49.934;9.138;2023-09-18T05:45:53;99592.28;;;20.11;100.00
13348;BME280;6743;49.934;9.138;2023-09-18T05:51:49;99573.66;;;20.09;100.00
13348;BME280;6743;49.934;9.138;2023-09-18T06:20:59;99666.03;;;20.10;100.00
13348;BME280;6743;49.934;9.138;2023-09-18T06:23:25;99657.50;;;20.01;100.00
13348;BME280;6743;49.934;9.138;2023-09-18T06:25:50;99677.84;;;20.09;100.00
13348;BME280;6743;49.934;9.138;2023-09-18T06:28:21;99666.84;;;20.10;100.00
13348;BME280;6743;49.934;9.138;2023-09-18T06:31:06;99663.66;;;20.13;100.00
13348;BME280;6743;49.934;9.138;2023-09-18T06:39:32;99664.75;;;20.29;100.00
13348;BME280;6743;49.934;9.138;2023-09-18T06:42:06;99658.91;;;20.32;100.00
13348;BME280;6743;49.934;9.138;2023-09-18T06:44:32;99666.50;;;20.35;100.00
13348;BME280;6743;49.934;9.138;2023-09-18T06:49:39;99648.81;;;20.39;100.00
13348;BME280;6743;49.934;9.138;2023-09-18T06:52:07;99639.00;;;20.33;100.00
13348;BME280;6743;49.934;9.138;2023-09-18T06:54:54;99648.91;;;20.44;100.00
13348;BME280;6743;49.934;9.138;2023-09-18T07:00:35;99663.03;;;20.51;100.00
13348;BME280;6743;49.934;9.138;2023-09-18T07:45:53;99719.06;;;20.82;100.00
13348;BME280;6743;49.934;9.138;2023-09-18T07:55:23;99724.56;;;20.88;100.00
13348;BME280;6743;49.934;9.138;2023-09-18T08:03:52;99749.78;;;20.98;100.00
13348;BME280;6743;49.934;9.138;2023-09-18T08:12:19;99747.53;;;21.07;100.00
13348;BME280;6743;49.934;9.138;2023-09-18T08:15:26;99755.09;;;21.10;100.00
13348;BME280;6743;49.934;9.138;2023-09-18T08:24:10;99766.69;;;21.22;100.00
13348;BME280;6743;49.934;9.138;2023-09-18T08:29:40;99764.06;;;21.27;100.00
13348;BME280;6743;49.934;9.138;2023-09-18T08:32:08;99760.59;;;21.32;100.00
13348;BME280;6743;49.934;9.138;2023-09-18T08:38:03;99753.16;;;21.39;100.00
13348;BME280;6743;49.934;9.138;2023-09-18T08:41:07;99758.63;;;21.44;100.00
13348;BME280;6743;49.934;9.138;2023-09-18T08:43:50;99759.19;;;21.46;100.00
13348;BME280;6743;49.934;9.138;2023-09-18T08:46:18;99741.63;;;21.43;100.00
13348;BME280;6743;49.934;9.138;2023-09-18T08:48:44;99754.69;;;21.51;100.00
13348;BME280;6743;49.934;9.138;2023-09-18T08:51:26;99731.09;;;21.42;100.00
13348;BME280;6743;49.934;9.138;2023-09-18T08:54:00;99745.22;;;21.49;100.00
13348;BME280;6743;49.934;9.138;2023-09-18T08:56:33;99742.53;;;21.49;100.00
13348;BME280;6743;49.934;9.138;2023-09-18T08:59:21;99752.00;;;21.51;100.00
13348;BME280;6743;49.934;9.138;2023-09-18T09:01:47;99736.38;;;21.53;100.00
13348;BME280;6743;49.934;9.138;2023-09-18T09:04:14;99715.78;;;21.47;100.00
13348;BME280;6743;49.934;9.138;2023-09-18T09:06:40;99731.31;;;21.57;100.00
13348;BME280;6743;49.934;9.138;2023-09-18T09:09:06;99729.97;;;21.59;100.00
13348;BME280;6743;49.934;9.138;2023-09-18T09:11:34;99718.78;;;21.51;100.00
13348;BME280;6743;49.934;9.138;2023-09-18T09:14:11;99716.53;;;21.65;100.00
13348;BME280;6743;49.934;9.138;2023-09-18T09:16:48;99718.16;;;21.66;100.00
13348;BME280;6743;49.934;9.138;2023-09-18T09:19:28;99702.16;;;21.59;100.00
13348;BME280;6743;49.934;9.138;2023-09-18T09:22:05;99704.19;;;21.69;100.00
13348;BME280;6743;49.934;9.138;2023-09-18T09:24:39;99702.31;;;21.69;100.00
13348;BME280;6743;49.934;9.138;2023-09-18T09:27:06;99682.00;;;21.45;100.00
13348;BME280;6743;49.934;9.138;2023-09-18T09:29:32;99718.16;;;21.66;100.00
13348;BME280;6743;49.934;9.138;2023-09-18T09:32:12;99699.56;;;21.64;100.00
13348;BME280;6743;49.934;9.138;2023-09-18T09:34:41;99707.66;;;21.64;100.00
13348;BME280;6743;49.934;9.138;2023-09-18T09:37:17;99714.94;;;21.64;100.00
13348;BME280;6743;49.934;9.138;2023-09-18T09:39:49;99720.31;;;21.64;100.00
13348;BME280;6743;49.934;9.138;2023-09-18T09:42:38;99721.63;;;21.61;100.00
13348;BME280;6743;49.934;9.138;2023-09-18T09:45:11;99723.28;;;21.62;100.00
13348;BME280;6743;49.934;9.138;2023-09-18T09:47:37;99724.91;;;21.63;100.00
13348;BME280;6743;49.934;9.138;2023-09-18T09:50:08;99729.78;;;21.66;100.00
13348;BME280;6743;49.934;9.138;2023-09-18T09:52:41;99740.34;;;21.68;100.00
13348;BME280;6743;49.934;9.138;2023-09-18T09:55:27;99737.16;;;21.71;100.00
13348;BME280;6743;49.934;9.138;2023-09-18T09:58:03;99736.88;;;21.72;100.00
13348;BME280;6743;49.934;9.138;2023-09-18T10:00:31;99749.56;;;21.72;100.00
13348;BME280;6743;49.934;9.138;2023-09-18T10:03:14;99758.25;;;21.74;100.00
13348;BME280;6743;49.934;9.138;2023-09-18T10:05:41;99756.13;;;21.76;100.00
13348;BME280;6743;49.934;9.138;2023-09-18T10:08:10;99764.78;;;21.78;100.00
13348;BME280;6743;49.934;9.138;2023-09-18T10:10:53;99761.81;;;21.79;100.00
13348;BME280;6743;49.934;9.138;2023-09-18T10:13:29;99762.41;;;21.81;100.00
13348;BME280;6743;49.934;9.138;2023-09-18T10:16:04;99766.97;;;21.81;100.00
13348;BME280;6743;49.934;9.138;2023-09-18T10:18:55;99770.50;;;21.81;100.00
13348;BME280;6743;49.934;9.138;2023-09-18T10:21:26;99768.47;;;21.72;100.00
13348;BME280;6743;49.934;9.138;2023-09-18T10:24:14;99764.97;;;21.71;100.00
13348;BME280;6743;49.934;9.138;2023-09-18T10:26:59;99784.47;;;21.78;100.00
13348;BME280;6743;49.934;9.138;2023-09-18T10:30:00;99777.47;;;21.77;100.00
13348;BME280;6743;49.934;9.138;2023-09-18T10:32:47;99784.19;;;21.75;100.00
13348;BME280;6743;49.934;9.138;2023-09-18T10:35:28;99781.19;;;21.71;100.00
13348;BME280;6743;49.934;9.138;2023-09-18T10:38:12;99779.78;;;21.69;100.00
13348;BME280;6743;49.934;9.138;2023-09-18T10:40:40;99778.38;;;21.66;100.00
13348;BME280;6743;49.934;9.138;2023-09-18T10:43:07;99769.16;;;21.62;100.00
13348;BME280;6743;49.934;9.138;2023-09-18T10:45:36;99773.97;;;21.60;100.00
13348;BME280;6743;49.934;9.138;2023-09-18T10:48:06;99769.41;;;21.60;100.00
13348;BME280;6743;49.934;9.138;2023-09-18T10:50:34;99767.53;;;21.61;100.00
13348;BME280;6743;49.934;9.138;2023-09-18T10:53:08;99778.31;;;21.61;100.00
13348;BME280;6743;49.934;9.138;2023-09-18T10:55:35;99784.19;;;21.58;100.00
13348;BME280;6743;49.934;9.138;2023-09-18T10:58:02;99776.09;;;21.58;100.00
13348;BME280;6743;49.934;9.138;2023-09-18T11:00:29;99773.41;;;21.58;100.00
13348;BME280;6743;49.934;9.138;2023-09-18T11:03:10;99767.75;;;21.59;100.00
13348;BME280;6743;49.934;9.138;2023-09-18T11:05:37;99764.00;;;21.60;100.00
13348;BME280;6743;49.934;9.138;2023-09-18T11:08:25;99771.34;;;21.65;100.00
13348;BME280;6743;49.934;9.138;2023-09-18T11:10:56;99773.81;;;21.67;100.00
13348;BME280;6743;49.934;9.138;2023-09-18T11:13:28;99782.72;;;21.67;100.00
13348;BME280;6743;49.934;9.138;2023-09-18T11:15:59;99788.47;;;21.71;100.00
13348;BME280;6743;49.934;9.138;2023-09-18T11:18:48;99767.69;;;21.71;100.00
13348;BME280;6743;49.934;9.138;2023-09-18T11:21:33;99784.75;;;21.77;100.00
13348;BME280;6743;49.934;9.138;2023-09-18T11:24:02;99756.25;;;21.64;100.00
13348;BME280;6743;49.934;9.138;2023-09-18T11:26:30;99772.72;;;21.84;100.00
13348;BME280;6743;49.934;9.138;2023-09-18T11:33:07;99778.84;;;21.96;100.00
13348;BME280;6743;49.934;9.138;2023-09-18T11:39:55;99774.34;;;22.07;100.00
13348;BME280;6743;49.934;9.138;2023-09-18T11:43:32;99763.63;;;22.12;100.00
13348;BME280;6743;49.934;9.138;2023-09-18T11:46:56;99768.28;;;22.17;100.00
13348;BME280;6743;49.934;9.138;2023-09-18T11:49:46;99770.22;;;22.21;100.00
13348;BME280;6743;49.934;9.138;2023-09-18T11:52:20;99767.50;;;22.21;100.00
13348;BME280;6743;49.934;9.138;2023-09-18T11:54:49;99746.03;;;22.10;100.00
13348;BME280;6743;49.934;9.138;2023-09-18T11:57:22;99761.41;;;22.31;100.00
13348;BME280;6743;49.934;9.138;2023-09-18T11:59:59;99754.41;;;22.35;100.00
13348;BME280;6743;49.934;9.138;2023-09-18T12:02:37;99743.69;;;22.40;100.00
13348;BME280;6743;49.934;9.138;2023-09-18T12:05:10;99748.56;;;22.43;100.00
13348;BME280;6743;49.934;9.138;2023-09-18T12:08:03;99754.84;;;22.49;100.00
13348;BME280;6743;49.934;9.138;2023-09-18T12:10:50;99772.50;;;22.56;100.00
13348;BME280;6743;49.934;9.138;2023-09-18T12:13:34;99782.00;;;22.59;100.00
13348;BME280;6743;49.934;9.138;2023-09-18T12:19:16;99779.03;;;22.60;100.00
13348;BME280;6743;49.934;9.138;2023-09-18T12:21:47;99774.38;;;22.56;100.00
13348;BME280;6743;49.934;9.138;2023-09-18T12:24:13;99776.59;;;22.59;100.00
13348;BME280;6743;49.934;9.138;2023-09-18T12:26:40;99783.62;;;22.60;100.00
13348;BME280;6743;49.934;9.138;2023-09-18T12:29:15;99786.81;;;22.57;100.00
13348;BME280;6743;49.934;9.138;2023-09-18T12:31:55;99778.72;;;22.57;100.00
13348;BME280;6743;49.934;9.138;2023-09-18T12:34:22;99785.44;;;22.54;100.00
13348;BME280;6743;49.934;9.138;2023-09-18T12:36:54;99782.72;;;22.54;100.00
13348;BME280;6743;49.934;9.138;2023-09-18T12:39:20;99782.19;;;22.52;100.00
13348;BME280;6743;49.934;9.138;2023-09-18T12:41:47;99780.56;;;22.51;100.00
13348;BME280;6743;49.934;9.138;2023-09-18T12:44:14;99783.56;;;22.55;100.00
13348;BME280;6743;49.934;9.138;2023-09-18T12:53:45;99780.75;;;22.71;100.00
13348;BME280;6743;49.934;9.138;2023-09-18T12:56:21;99779.94;;;22.71;100.00
13348;BME280;6743;49.934;9.138;2023-09-18T13:06:19;99780.09;;;22.59;100.00
13348;BME280;6743;49.934;9.138;2023-09-18T13:08:49;99766.06;;;22.62;100.00
13348;BME280;6743;49.934;9.138;2023-09-18T13:11:18;99760.44;;;22.69;100.00
13348;BME280;6743;49.934;9.138;2023-09-18T13:13:44;99750.66;;;22.63;100.00
13348;BME280;6743;49.934;9.138;2023-09-18T13:16:10;99772.72;;;22.76;100.00
13348;BME280;6743;49.934;9.138;2023-09-18T13:18:37;99771.16;;;22.81;100.00
13348;BME280;6743;49.934;9.138;2023-09-18T13:21:11;99763.53;;;22.77;100.00
13348;BME280;6743;49.934;9.138;2023-09-18T13:23:39;99750.16;;;22.66;100.00
13348;BME280;6743;49.934;9.138;2023-09-18T13:26:20;99753.78;;;22.76;100.00
13348;BME280;6743;49.934;9.138;2023-09-18T13:28:46;99752.97;;;22.76;100.00
13348;BME280;6743;49.934;9.138;2023-09-18T13:31:12;99758.94;;;22.78;100.00
13348;BME280;6743;49.934;9.138;2023-09-18T13:33:38;99728.00;;;22.69;100.00
13348;BME280;6743;49.934;9.138;2023-09-18T13:36:05;99748.44;;;22.82;100.00
13348;BME280;6743;49.934;9.138;2023-09-18T13:38:32;99755.22;;;22.84;100.00
13348;BME280;6743;49.934;9.138;2023-09-18T13:40:59;99729.19;;;22.78;100.00
13348;BME280;6743;49.934;9.138;2023-09-18T13:43:26;99741.78;;;22.94;100.00
13348;BME280;6743;49.934;9.138;2023-09-18T13:45:54;99752.16;;;23.02;100.00
13348;BME280;6743;49.934;9.138;2023-09-18T13:48:22;99735.94;;;23.07;100.00
13348;BME280;6743;49.934;9.138;2023-09-18T13:50:48;99732.19;;;23.13;100.00
13348;BME280;6743;49.934;9.138;2023-09-18T13:53:30;99701.03;;;23.06;100.00
13348;BME280;6743;49.934;9.138;2023-09-18T13:55:56;99720.91;;;23.27;100.00
13348;BME280;6743;49.934;9.138;2023-09-18T13:58:25;99703.59;;;23.23;100.00
13348;BME280;6743;49.934;9.138;2023-09-18T14:01:06;99735.06;;;23.39;100.00
13348;BME280;6743;49.934;9.138;2023-09-18T14:03:33;99698.69;;;23.25;100.00
13348;BME280;6743;49.934;9.138;2023-09-18T14:06:02;99726.13;;;23.38;100.00
13348;BME280;6743;49.934;9.138;2023-09-18T14:08:30;99723.72;;;23.42;100.00
13348;BME280;6743;49.934;9.138;2023-09-18T14:10:56;99726.19;;;23.43;100.00
13348;BME280;6743;49.934;9.138;2023-09-18T14:13:22;99730.00;;;23.47;100.00
13348;BME280;6743;49.934;9.138;2023-09-18T14:15:49;99724.34;;;23.49;100.00
13348;BME280;6743;49.934;9.138;2023-09-18T14:18:32;99727.31;;;23.52;100.00
13348;BME280;6743;49.934;9.138;2023-09-18T14:20:58;99712.97;;;23.52;100.00
13348;BME280;6743;49.934;9.138;2023-09-18T14:23:38;99711.91;;;23.58;100.00
13348;BME280;6743;49.934;9.138;2023-09-18T14:26:05;99712.72;;;23.59;100.00
13348;BME280;6743;49.934;9.138;2023-09-18T14:28:31;99706.47;;;23.53;100.00
13348;BME280;6743;49.934;9.138;2023-09-18T14:30:59;99706.75;;;23.51;100.00
13348;BME280;6743;49.934;9.138;2023-09-18T14:33:39;99709.41;;;23.46;100.00
13348;BME280;6743;49.934;9.138;2023-09-18T14:36:06;99702.09;;;23.47;100.00
13348;BME280;6743;49.934;9.138;2023-09-18T14:38:33;99705.38;;;23.49;100.00
13348;BME280;6743;49.934;9.138;2023-09-18T14:41:00;99694.03;;;23.52;100.00
13348;BME280;6743;49.934;9.138;2023-09-18T14:43:28;99691.88;;;23.54;100.00
13348;BME280;6743;49.934;9.138;2023-09-18T14:45:55;99692.12;;;23.52;100.00
13348;BME280;6743;49.934;9.138;2023-09-18T14:48:36;99687.53;;;23.53;100.00
13348;BME280;6743;49.934;9.138;2023-09-18T14:51:03;99689.72;;;23.51;100.00
13348;BME280;6743;49.934;9.138;2023-09-18T14:53:29;99681.59;;;23.56;100.00
13348;BME280;6743;49.934;9.138;2023-09-18T14:59:39;99664.06;;;23.74;100.00
13348;BME280;6743;49.934;9.138;2023-09-18T15:02:14;99664.13;;;23.84;100.00
13348;BME280;6743;49.934;9.138;2023-09-18T15:08:43;99656.56;;;24.01;100.00
13348;BME280;6743;49.934;9.138;2023-09-18T15:11:57;99656.34;;;24.13;100.00
13348;BME280;6743;49.934;9.138;2023-09-18T15:14:23;99662.28;;;24.15;100.00
13348;BME280;6743;49.934;9.138;2023-09-18T15:17:37;99655.53;;;24.17;100.00
13348;BME280;6743;49.934;9.138;2023-09-18T15:33:42;99635.81;;;24.67;100.00
13348;BME280;6743;49.934;9.138;2023-09-18T15:36:58;99634.97;;;24.72;100.00
13348;BME280;6743;49.934;9.138;2023-09-18T15:39:26;99636.34;;;24.75;100.00
13348;BME280;6743;49.934;9.138;2023-09-18T15:41:52;99639.84;;;24.80;100.00
13348;BME280;6743;49.934;9.138;2023-09-18T15:44:22;99629.00;;;24.80;100.00
13348;BME280;6743;49.934;9.138;2023-09-18T15:46:52;99609.19;;;24.69;100.00
13348;BME280;6743;49.934;9.138;2023-09-18T15:49:24;99560.16;;;24.46;100.00
13348;BME280;6743;49.934;9.138;2023-09-18T15:52:04;99622.22;;;24.78;100.00
13348;BME280;6743;49.934;9.138;2023-09-18T15:54:31;99604.34;;;24.66;100.00
13348;BME280;6743;49.934;9.138;2023-09-18T15:57:20;99614.63;;;24.69;100.00
13348;BME280;6743;49.934;9.138;2023-09-18T15:59:51;99622.22;;;24.62;100.00
13348;BME280;6743;49.934;9.138;2023-09-18T16:02:17;99626.03;;;24.51;100.00
13348;BME280;6743;49.934;9.138;2023-09-18T16:04:47;99640.38;;;24.42;100.00
13348;BME280;6743;49.934;9.138;2023-09-18T16:07:14;99637.94;;;24.35;100.00
13348;BME280;6743;49.934;9.138;2023-09-18T16:09:54;99629.81;;;24.30;100.00
13348;BME280;6743;49.934;9.138;2023-09-18T16:12:21;99640.38;;;24.21;100.00
13348;BME280;6743;49.934;9.138;2023-09-18T16:14:49;99630.28;;;24.07;100.00
13348;BME280;6743;49.934;9.138;2023-09-18T16:17:15;99634.09;;;24.06;100.00
13348;BME280;6743;49.934;9.138;2023-09-18T16:19:42;99631.91;;;23.98;100.00
13348;BME280;6743;49.934;9.138;2023-09-18T16:22:31;99579.78;;;23.60;100.00
13348;BME280;6743;49.934;9.138;2023-09-18T16:25:13;99623.44;;;23.79;100.00
13348;BME280;6743;49.934;9.138;2023-09-18T16:28:13;99623.69;;;23.72;100.00
13348;BME280;6743;49.934;9.138;2023-09-18T16:30:41;99624.75;;;23.66;100.00
13348;BME280;6743;49.934;9.138;2023-09-18T16:33:07;99617.69;;;23.60;100.00
13348;BME280;6743;49.934;9.138;2023-09-18T16:35:54;99614.97;;;23.55;100.00